sensor_id;sensor_type;location;lat;lon;timestamp;P1;durP1;ratioP1;P2;durP2;ratioP2
44102;SDS011;29769;42.178;24.742;2022-11-02T00:01:30;33.72;;;12.98;;
44102;SDS011;29769;42.178;24.742;2022-11-02T00:04:21;27.80;;;12.25;;
44102;SDS011;29769;42.178;24.742;2022-11-02T00:07:06;30.38;;;12.18;;
44102;SDS011;29769;42.178;24.742;2022-11-02T00:09:50;32.50;;;10.32;;
44102;SDS011;29769;42.178;24.742;2022-11-02T00:12:35;29.73;;;12.90;;
44102;SDS011;29769;42.178;24.742;2022-11-02T00:15:20;28.70;;;11.77;;
44102;SDS011;29769;42.178;24.742;2022-11-02T00:18:08;26.38;;;10.20;;
44102;SDS011;29769;42.178;24.742;2022-11-02T00:20:56;27.83;;;10.35;;
44102;SDS011;29769;42.178;24.742;2022-11-02T00:23:40;20.90;;;10.27;;
44102;SDS011;29769;42.178;24.742;2022-11-02T00:26:26;28.25;;;11.23;;
44102;SDS011;29769;42.178;24.742;2022-11-02T00:29:12;19.73;;;10.63;;
44102;SDS011;29769;42.178;24.742;2022-11-02T00:31:57;32.60;;;11.10;;
44102;SDS011;29769;42.178;24.742;2022-11-02T00:34:42;33.13;;;12.25;;
44102;SDS011;29769;42.178;24.742;2022-11-02T00:37:27;22.98;;;10.43;;
44102;SDS011;29769;42.178;24.742;2022-11-02T00:40:12;16.10;;;9.60;;
44102;SDS011;29769;42.178;24.742;2022-11-02T00:42:56;26.85;;;11.30;;
44102;SDS011;29769;42.178;24.742;2022-11-02T00:45:41;24.40;;;11.27;;
44102;SDS011;29769;42.178;24.742;2022-11-02T00:48:27;28.27;;;12.63;;
44102;SDS011;29769;42.178;24.742;2022-11-02T00:51:12;25.63;;;12.10;;
44102;SDS011;29769;42.178;24.742;2022-11-02T00:53:59;31.85;;;11.85;;
44102;SDS011;29769;42.178;24.742;2022-11-02T00:56:44;19.13;;;10.55;;
44102;SDS011;29769;42.178;24.742;2022-11-02T00:59:29;34.22;;;11.68;;
44102;SDS011;29769;42.178;24.742;2022-11-02T01:02:14;34.42;;;12.90;;
44102;SDS011;29769;42.178;24.742;2022-11-02T01:04:59;32.35;;;11.95;;
44102;SDS011;29769;42.178;24.742;2022-11-02T01:07:44;32.20;;;10.90;;
44102;SDS011;29769;42.178;24.742;2022-11-02T01:10:29;27.60;;;11.68;;
44102;SDS011;29769;42.178;24.742;2022-11-02T01:13:14;29.17;;;12.23;;
44102;SDS011;29769;42.178;24.742;2022-11-02T01:16:01;23.42;;;12.65;;
44102;SDS011;29769;42.178;24.742;2022-11-02T01:18:50;30.65;;;12.05;;
44102;SDS011;29769;42.178;24.742;2022-11-02T01:21:37;43.60;;;13.02;;
44102;SDS011;29769;42.178;24.742;2022-11-02T01:24:21;38.67;;;12.40;;
44102;SDS011;29769;42.178;24.742;2022-11-02T01:27:06;28.08;;;10.82;;
44102;SDS011;29769;42.178;24.742;2022-11-02T01:32:36;23.83;;;12.88;;
44102;SDS011;29769;42.178;24.742;2022-11-02T01:35:21;31.77;;;11.95;;
44102;SDS011;29769;42.178;24.742;2022-11-02T01:38:06;37.08;;;11.55;;
44102;SDS011;29769;42.178;24.742;2022-11-02T01:40:51;30.05;;;13.10;;
44102;SDS011;29769;42.178;24.742;2022-11-02T01:43:36;34.38;;;12.60;;
44102;SDS011;29769;42.178;24.742;2022-11-02T01:46:21;29.33;;;11.80;;
44102;SDS011;29769;42.178;24.742;2022-11-02T01:49:13;27.52;;;11.75;;
44102;SDS011;29769;42.178;24.742;2022-11-02T01:54:52;34.60;;;12.40;;
44102;SDS011;29769;42.178;24.742;2022-11-02T01:57:54;25.52;;;12.38;;
44102;SDS011;29769;42.178;24.742;2022-11-02T02:00:42;22.10;;;11.60;;
44102;SDS011;29769;42.178;24.742;2022-11-02T02:06:14;31.92;;;11.13;;
44102;SDS011;29769;42.178;24.742;2022-11-02T02:09:02;26.08;;;11.38;;
44102;SDS011;29769;42.178;24.742;2022-11-02T02:11:49;29.58;;;11.63;;
44102;SDS011;29769;42.178;24.742;2022-11-02T02:14:34;31.27;;;11.95;;
44102;SDS011;29769;42.178;24.742;2022-11-02T02:30:11;25.55;;;12.32;;
44102;SDS011;29769;42.178;24.742;2022-11-02T02:33:00;43.95;;;13.23;;
44102;SDS011;29769;42.178;24.742;2022-11-02T02:35:59;25.35;;;13.35;;
44102;SDS011;29769;42.178;24.742;2022-11-02T02:41:45;25.40;;;13.00;;
44102;SDS011;29769;42.178;24.742;2022-11-02T02:44:38;27.95;;;12.02;;
44102;SDS011;29769;42.178;24.742;2022-11-02T02:47:30;29.10;;;12.55;;
44102;SDS011;29769;42.178;24.742;2022-11-02T02:50:23;29.55;;;14.07;;
44102;SDS011;29769;42.178;24.742;2022-11-02T02:53:13;29.43;;;13.17;;
44102;SDS011;29769;42.178;24.742;2022-11-02T02:56:00;27.95;;;13.32;;
44102;SDS011;29769;42.178;24.742;2022-11-02T02:58:51;30.48;;;13.38;;
44102;SDS011;29769;42.178;24.742;2022-11-02T03:02:00;32.10;;;14.15;;
44102;SDS011;29769;42.178;24.742;2022-11-02T03:04:49;37.92;;;14.68;;
44102;SDS011;29769;42.178;24.742;2022-11-02T03:07:33;24.73;;;12.98;;
44102;SDS011;29769;42.178;24.742;2022-11-02T03:10:25;31.42;;;13.40;;
44102;SDS011;29769;42.178;24.742;2022-11-02T03:19:23;30.75;;;13.10;;
44102;SDS011;29769;42.178;24.742;2022-11-02T03:29:06;33.45;;;14.13;;
44102;SDS011;29769;42.178;24.742;2022-11-02T03:31:59;26.25;;;12.55;;
44102;SDS011;29769;42.178;24.742;2022-11-02T03:34:52;30.23;;;13.43;;
44102;SDS011;29769;42.178;24.742;2022-11-02T03:37:45;23.98;;;11.10;;
44102;SDS011;29769;42.178;24.742;2022-11-02T03:40:37;35.92;;;11.60;;
44102;SDS011;29769;42.178;24.742;2022-11-02T03:43:26;29.92;;;11.75;;
44102;SDS011;29769;42.178;24.742;2022-11-02T03:46:12;32.60;;;11.43;;
44102;SDS011;29769;42.178;24.742;2022-11-02T03:49:01;33.47;;;14.20;;
44102;SDS011;29769;42.178;24.742;2022-11-02T03:51:48;23.98;;;10.45;;
44102;SDS011;29769;42.178;24.742;2022-11-02T03:54:43;26.58;;;11.05;;
44102;SDS011;29769;42.178;24.742;2022-11-02T03:57:35;26.30;;;10.48;;
44102;SDS011;29769;42.178;24.742;2022-11-02T04:00:31;19.50;;;9.93;;
44102;SDS011;29769;42.178;24.742;2022-11-02T04:03:23;30.67;;;10.52;;
44102;SDS011;29769;42.178;24.742;2022-11-02T04:06:10;24.77;;;10.98;;
44102;SDS011;29769;42.178;24.742;2022-11-02T04:08:56;24.90;;;11.48;;
44102;SDS011;29769;42.178;24.742;2022-11-02T04:11:42;28.60;;;11.77;;
44102;SDS011;29769;42.178;24.742;2022-11-02T04:14:47;27.65;;;11.32;;
44102;SDS011;29769;42.178;24.742;2022-11-02T04:17:35;23.08;;;11.07;;
44102;SDS011;29769;42.178;24.742;2022-11-02T04:20:39;21.30;;;11.23;;
44102;SDS011;29769;42.178;24.742;2022-11-02T04:23:24;36.45;;;12.23;;
44102;SDS011;29769;42.178;24.742;2022-11-02T04:26:27;28.92;;;12.82;;
44102;SDS011;29769;42.178;24.742;2022-11-02T04:29:12;23.27;;;11.30;;
44102;SDS011;29769;42.178;24.742;2022-11-02T04:31:58;24.45;;;12.32;;
44102;SDS011;29769;42.178;24.742;2022-11-02T04:34:43;32.40;;;12.30;;
44102;SDS011;29769;42.178;24.742;2022-11-02T04:37:28;29.60;;;12.30;;
44102;SDS011;29769;42.178;24.742;2022-11-02T04:40:32;31.17;;;12.40;;
44102;SDS011;29769;42.178;24.742;2022-11-02T04:43:18;25.17;;;13.32;;
44102;SDS011;29769;42.178;24.742;2022-11-02T04:46:03;36.05;;;13.13;;
44102;SDS011;29769;42.178;24.742;2022-11-02T04:51:34;27.08;;;12.23;;
44102;SDS011;29769;42.178;24.742;2022-11-02T04:54:19;31.70;;;12.27;;
44102;SDS011;29769;42.178;24.742;2022-11-02T04:57:09;26.77;;;13.38;;
44102;SDS011;29769;42.178;24.742;2022-11-02T04:59:54;29.05;;;12.05;;
44102;SDS011;29769;42.178;24.742;2022-11-02T05:02:39;32.40;;;12.80;;
44102;SDS011;29769;42.178;24.742;2022-11-02T05:05:24;28.70;;;12.10;;
44102;SDS011;29769;42.178;24.742;2022-11-02T05:08:12;33.45;;;12.80;;
44102;SDS011;29769;42.178;24.742;2022-11-02T05:10:57;35.53;;;12.30;;
44102;SDS011;29769;42.178;24.742;2022-11-02T05:13:44;26.40;;;10.25;;
44102;SDS011;29769;42.178;24.742;2022-11-02T05:16:29;20.85;;;9.82;;
44102;SDS011;29769;42.178;24.742;2022-11-02T05:19:14;34.10;;;11.55;;
44102;SDS011;29769;42.178;24.742;2022-11-02T05:22:00;33.90;;;12.05;;
44102;SDS011;29769;42.178;24.742;2022-11-02T05:24:46;29.52;;;10.80;;
44102;SDS011;29769;42.178;24.742;2022-11-02T05:27:31;27.33;;;11.75;;
44102;SDS011;29769;42.178;24.742;2022-11-02T05:30:16;25.55;;;10.70;;
44102;SDS011;29769;42.178;24.742;2022-11-02T05:33:02;39.50;;;11.85;;
44102;SDS011;29769;42.178;24.742;2022-11-02T05:35:47;27.08;;;10.32;;
44102;SDS011;29769;42.178;24.742;2022-11-02T05:38:32;28.30;;;9.98;;
44102;SDS011;29769;42.178;24.742;2022-11-02T05:41:18;22.52;;;9.73;;
44102;SDS011;29769;42.178;24.742;2022-11-02T05:44:03;25.10;;;11.27;;
44102;SDS011;29769;42.178;24.742;2022-11-02T05:46:49;29.30;;;10.90;;
44102;SDS011;29769;42.178;24.742;2022-11-02T05:52:18;27.48;;;9.63;;
44102;SDS011;29769;42.178;24.742;2022-11-02T05:55:04;34.10;;;9.85;;
44102;SDS011;29769;42.178;24.742;2022-11-02T05:57:50;32.92;;;8.05;;
44102;SDS011;29769;42.178;24.742;2022-11-02T06:00:36;21.13;;;9.45;;
44102;SDS011;29769;42.178;24.742;2022-11-02T06:03:21;27.55;;;8.35;;
44102;SDS011;29769;42.178;24.742;2022-11-02T06:06:06;27.33;;;7.38;;
44102;SDS011;29769;42.178;24.742;2022-11-02T06:08:53;21.88;;;8.63;;
44102;SDS011;29769;42.178;24.742;2022-11-02T06:14:23;32.03;;;8.68;;
44102;SDS011;29769;42.178;24.742;2022-11-02T06:17:07;22.42;;;7.32;;
44102;SDS011;29769;42.178;24.742;2022-11-02T06:22:38;41.22;;;8.20;;
44102;SDS011;29769;42.178;24.742;2022-11-02T06:25:24;27.88;;;7.55;;
44102;SDS011;29769;42.178;24.742;2022-11-02T06:28:09;51.08;;;10.23;;
44102;SDS011;29769;42.178;24.742;2022-11-02T06:30:54;25.05;;;7.95;;
44102;SDS011;29769;42.178;24.742;2022-11-02T06:33:39;67.13;;;12.55;;
44102;SDS011;29769;42.178;24.742;2022-11-02T06:36:25;45.47;;;7.75;;
44102;SDS011;29769;42.178;24.742;2022-11-02T06:39:10;22.13;;;6.82;;
44102;SDS011;29769;42.178;24.742;2022-11-02T06:41:54;46.00;;;8.05;;
44102;SDS011;29769;42.178;24.742;2022-11-02T06:44:40;23.75;;;6.30;;
44102;SDS011;29769;42.178;24.742;2022-11-02T06:47:27;27.38;;;5.68;;
44102;SDS011;29769;42.178;24.742;2022-11-02T06:50:13;27.25;;;6.35;;
44102;SDS011;29769;42.178;24.742;2022-11-02T06:52:59;26.02;;;6.40;;
44102;SDS011;29769;42.178;24.742;2022-11-02T06:55:44;17.38;;;6.03;;
44102;SDS011;29769;42.178;24.742;2022-11-02T06:58:28;19.58;;;6.43;;
44102;SDS011;29769;42.178;24.742;2022-11-02T07:01:13;17.95;;;5.63;;
44102;SDS011;29769;42.178;24.742;2022-11-02T07:03:59;22.20;;;5.82;;
44102;SDS011;29769;42.178;24.742;2022-11-02T07:06:44;34.72;;;6.32;;
44102;SDS011;29769;42.178;24.742;2022-11-02T07:09:29;33.85;;;7.57;;
44102;SDS011;29769;42.178;24.742;2022-11-02T07:12:13;31.67;;;6.60;;
44102;SDS011;29769;42.178;24.742;2022-11-02T07:14:58;27.58;;;6.47;;
44102;SDS011;29769;42.178;24.742;2022-11-02T07:17:43;16.95;;;5.90;;
44102;SDS011;29769;42.178;24.742;2022-11-02T07:20:28;18.33;;;6.65;;
44102;SDS011;29769;42.178;24.742;2022-11-02T07:23:13;39.90;;;7.03;;
44102;SDS011;29769;42.178;24.742;2022-11-02T07:26:01;29.77;;;7.38;;
44102;SDS011;29769;42.178;24.742;2022-11-02T07:28:47;45.33;;;9.32;;
44102;SDS011;29769;42.178;24.742;2022-11-02T07:31:32;47.75;;;10.20;;
44102;SDS011;29769;42.178;24.742;2022-11-02T07:34:17;28.55;;;7.60;;
44102;SDS011;29769;42.178;24.742;2022-11-02T07:37:01;26.58;;;7.55;;
44102;SDS011;29769;42.178;24.742;2022-11-02T07:39:46;29.15;;;7.22;;
44102;SDS011;29769;42.178;24.742;2022-11-02T07:42:31;16.95;;;6.75;;
44102;SDS011;29769;42.178;24.742;2022-11-02T07:45:16;27.98;;;6.55;;
44102;SDS011;29769;42.178;24.742;2022-11-02T07:48:01;18.05;;;5.57;;
44102;SDS011;29769;42.178;24.742;2022-11-02T07:50:46;17.60;;;5.32;;
44102;SDS011;29769;42.178;24.742;2022-11-02T07:53:31;26.40;;;7.03;;
44102;SDS011;29769;42.178;24.742;2022-11-02T07:56:16;30.05;;;6.75;;
44102;SDS011;29769;42.178;24.742;2022-11-02T07:59:01;24.67;;;6.60;;
44102;SDS011;29769;42.178;24.742;2022-11-02T08:01:46;21.00;;;5.63;;
44102;SDS011;29769;42.178;24.742;2022-11-02T08:04:32;25.85;;;6.95;;
44102;SDS011;29769;42.178;24.742;2022-11-02T08:07:17;25.67;;;7.47;;
44102;SDS011;29769;42.178;24.742;2022-11-02T08:10:02;17.83;;;6.10;;
44102;SDS011;29769;42.178;24.742;2022-11-02T08:12:47;37.20;;;7.28;;
44102;SDS011;29769;42.178;24.742;2022-11-02T08:15:32;18.77;;;6.60;;
44102;SDS011;29769;42.178;24.742;2022-11-02T08:18:18;18.83;;;6.55;;
44102;SDS011;29769;42.178;24.742;2022-11-02T08:21:07;27.63;;;6.90;;
44102;SDS011;29769;42.178;24.742;2022-11-02T08:23:52;24.13;;;6.30;;
44102;SDS011;29769;42.178;24.742;2022-11-02T08:26:38;17.85;;;5.70;;
44102;SDS011;29769;42.178;24.742;2022-11-02T08:29:23;27.85;;;6.47;;
44102;SDS011;29769;42.178;24.742;2022-11-02T08:32:07;20.30;;;5.55;;
44102;SDS011;29769;42.178;24.742;2022-11-02T08:34:52;28.55;;;6.13;;
44102;SDS011;29769;42.178;24.742;2022-11-02T08:37:37;19.27;;;6.60;;
44102;SDS011;29769;42.178;24.742;2022-11-02T08:40:22;20.15;;;6.05;;
44102;SDS011;29769;42.178;24.742;2022-11-02T08:43:08;35.22;;;7.40;;
44102;SDS011;29769;42.178;24.742;2022-11-02T08:45:56;30.77;;;6.90;;
44102;SDS011;29769;42.178;24.742;2022-11-02T08:48:42;27.88;;;6.90;;
44102;SDS011;29769;42.178;24.742;2022-11-02T08:51:28;25.70;;;7.13;;
44102;SDS011;29769;42.178;24.742;2022-11-02T08:54:13;19.25;;;6.00;;
44102;SDS011;29769;42.178;24.742;2022-11-02T08:56:58;34.00;;;6.95;;
44102;SDS011;29769;42.178;24.742;2022-11-02T08:59:43;34.67;;;5.75;;
44102;SDS011;29769;42.178;24.742;2022-11-02T09:02:28;30.58;;;6.57;;
44102;SDS011;29769;42.178;24.742;2022-11-02T09:05:13;28.45;;;6.20;;
44102;SDS011;29769;42.178;24.742;2022-11-02T09:07:59;21.88;;;6.15;;
44102;SDS011;29769;42.178;24.742;2022-11-02T09:10:50;23.20;;;5.95;;
44102;SDS011;29769;42.178;24.742;2022-11-02T09:13:36;21.10;;;5.78;;
44102;SDS011;29769;42.178;24.742;2022-11-02T09:16:21;29.27;;;5.88;;
44102;SDS011;29769;42.178;24.742;2022-11-02T09:19:06;15.45;;;5.55;;
44102;SDS011;29769;42.178;24.742;2022-11-02T09:21:51;31.35;;;6.53;;
44102;SDS011;29769;42.178;24.742;2022-11-02T09:24:36;22.60;;;6.13;;
44102;SDS011;29769;42.178;24.742;2022-11-02T09:27:21;29.17;;;5.55;;
44102;SDS011;29769;42.178;24.742;2022-11-02T09:30:06;15.98;;;5.10;;
44102;SDS011;29769;42.178;24.742;2022-11-02T09:32:52;24.70;;;5.43;;
44102;SDS011;29769;42.178;24.742;2022-11-02T09:35:43;34.42;;;5.68;;
44102;SDS011;29769;42.178;24.742;2022-11-02T09:38:29;12.80;;;5.55;;
44102;SDS011;29769;42.178;24.742;2022-11-02T09:41:22;15.95;;;5.70;;
44102;SDS011;29769;42.178;24.742;2022-11-02T09:47:12;18.30;;;6.38;;
44102;SDS011;29769;42.178;24.742;2022-11-02T09:49:58;33.42;;;6.90;;
44102;SDS011;29769;42.178;24.742;2022-11-02T09:52:46;24.70;;;5.38;;
44102;SDS011;29769;42.178;24.742;2022-11-02T09:55:47;20.30;;;6.28;;
44102;SDS011;29769;42.178;24.742;2022-11-02T09:58:37;16.70;;;5.75;;
44102;SDS011;29769;42.178;24.742;2022-11-02T10:11:29;27.80;;;5.93;;
44102;SDS011;29769;42.178;24.742;2022-11-02T10:14:19;20.92;;;5.15;;
44102;SDS011;29769;42.178;24.742;2022-11-02T10:17:20;23.63;;;6.22;;
44102;SDS011;29769;42.178;24.742;2022-11-02T10:20:29;19.88;;;5.45;;
44102;SDS011;29769;42.178;24.742;2022-11-02T10:23:29;33.28;;;5.75;;
44102;SDS011;29769;42.178;24.742;2022-11-02T10:26:22;24.20;;;4.78;;
44102;SDS011;29769;42.178;24.742;2022-11-02T10:32:00;26.13;;;4.90;;
44102;SDS011;29769;42.178;24.742;2022-11-02T10:34:46;22.92;;;5.68;;
44102;SDS011;29769;42.178;24.742;2022-11-02T10:52:36;22.05;;;5.03;;
44102;SDS011;29769;42.178;24.742;2022-11-02T10:55:28;14.98;;;4.40;;
44102;SDS011;29769;42.178;24.742;2022-11-02T10:58:27;15.77;;;4.43;;
44102;SDS011;29769;42.178;24.742;2022-11-02T11:01:15;16.60;;;4.38;;
44102;SDS011;29769;42.178;24.742;2022-11-02T11:04:01;18.23;;;4.07;;
44102;SDS011;29769;42.178;24.742;2022-11-02T11:06:47;15.85;;;4.32;;
44102;SDS011;29769;42.178;24.742;2022-11-02T11:09:36;13.57;;;4.10;;
44102;SDS011;29769;42.178;24.742;2022-11-02T11:12:33;11.20;;;3.92;;
44102;SDS011;29769;42.178;24.742;2022-11-02T11:15:23;18.77;;;3.85;;
44102;SDS011;29769;42.178;24.742;2022-11-02T11:18:12;11.25;;;4.00;;
44102;SDS011;29769;42.178;24.742;2022-11-02T11:20:58;15.82;;;4.25;;
44102;SDS011;29769;42.178;24.742;2022-11-02T11:23:43;10.27;;;3.80;;
44102;SDS011;29769;42.178;24.742;2022-11-02T11:26:29;13.38;;;4.22;;
44102;SDS011;29769;42.178;24.742;2022-11-02T11:29:21;16.83;;;4.10;;
44102;SDS011;29769;42.178;24.742;2022-11-02T11:32:23;16.23;;;4.47;;
44102;SDS011;29769;42.178;24.742;2022-11-02T11:35:13;9.50;;;3.63;;
44102;SDS011;29769;42.178;24.742;2022-11-02T11:38:02;12.85;;;3.78;;
44102;SDS011;29769;42.178;24.742;2022-11-02T11:41:02;15.00;;;4.65;;
44102;SDS011;29769;42.178;24.742;2022-11-02T11:43:47;13.25;;;3.72;;
44102;SDS011;29769;42.178;24.742;2022-11-02T11:46:38;9.73;;;3.97;;
44102;SDS011;29769;42.178;24.742;2022-11-02T11:49:27;17.88;;;3.97;;
44102;SDS011;29769;42.178;24.742;2022-11-02T11:52:16;11.18;;;4.13;;
44102;SDS011;29769;42.178;24.742;2022-11-02T12:01:15;12.52;;;3.83;;
44102;SDS011;29769;42.178;24.742;2022-11-02T12:04:01;24.48;;;5.20;;
44102;SDS011;29769;42.178;24.742;2022-11-02T12:12:45;14.98;;;3.40;;
44102;SDS011;29769;42.178;24.742;2022-11-02T12:30:20;31.10;;;5.40;;
44102;SDS011;29769;42.178;24.742;2022-11-02T12:33:16;15.57;;;4.13;;
44102;SDS011;29769;42.178;24.742;2022-11-02T12:36:18;20.27;;;7.45;;
44102;SDS011;29769;42.178;24.742;2022-11-02T12:39:18;14.43;;;3.30;;
44102;SDS011;29769;42.178;24.742;2022-11-02T12:45:32;12.95;;;3.08;;
44102;SDS011;29769;42.178;24.742;2022-11-02T12:48:44;14.45;;;3.88;;
44102;SDS011;29769;42.178;24.742;2022-11-02T12:55:17;10.18;;;2.90;;
44102;SDS011;29769;42.178;24.742;2022-11-02T12:58:10;9.20;;;2.80;;
44102;SDS011;29769;42.178;24.742;2022-11-02T13:01:04;11.35;;;2.95;;
44102;SDS011;29769;42.178;24.742;2022-11-02T13:04:08;10.40;;;2.92;;
44102;SDS011;29769;42.178;24.742;2022-11-02T13:07:03;16.92;;;3.40;;
44102;SDS011;29769;42.178;24.742;2022-11-02T13:09:59;15.23;;;3.30;;
44102;SDS011;29769;42.178;24.742;2022-11-02T13:13:00;12.13;;;3.20;;
44102;SDS011;29769;42.178;24.742;2022-11-02T13:15:47;7.43;;;3.22;;
44102;SDS011;29769;42.178;24.742;2022-11-02T13:18:35;16.08;;;2.92;;
44102;SDS011;29769;42.178;24.742;2022-11-02T13:21:35;12.52;;;3.85;;
44102;SDS011;29769;42.178;24.742;2022-11-02T13:24:26;12.52;;;3.95;;
44102;SDS011;29769;42.178;24.742;2022-11-02T13:27:29;12.00;;;3.38;;
44102;SDS011;29769;42.178;24.742;2022-11-02T13:30:16;7.18;;;3.05;;
44102;SDS011;29769;42.178;24.742;2022-11-02T13:36:12;12.93;;;4.07;;
44102;SDS011;29769;42.178;24.742;2022-11-02T13:39:01;14.20;;;3.00;;
44102;SDS011;29769;42.178;24.742;2022-11-02T13:45:34;15.32;;;3.83;;
44102;SDS011;29769;42.178;24.742;2022-11-02T13:51:47;12.05;;;3.45;;
44102;SDS011;29769;42.178;24.742;2022-11-02T13:54:41;14.75;;;4.97;;
44102;SDS011;29769;42.178;24.742;2022-11-02T13:57:33;11.65;;;3.92;;
44102;SDS011;29769;42.178;24.742;2022-11-02T14:06:01;14.55;;;4.22;;
44102;SDS011;29769;42.178;24.742;2022-11-02T14:08:56;15.50;;;4.50;;
44102;SDS011;29769;42.178;24.742;2022-11-02T14:11:45;15.05;;;3.88;;
44102;SDS011;29769;42.178;24.742;2022-11-02T14:14:32;16.08;;;3.83;;
44102;SDS011;29769;42.178;24.742;2022-11-02T14:17:17;19.42;;;4.47;;
44102;SDS011;29769;42.178;24.742;2022-11-02T14:20:14;10.40;;;3.85;;
44102;SDS011;29769;42.178;24.742;2022-11-02T14:23:29;14.27;;;4.47;;
44102;SDS011;29769;42.178;24.742;2022-11-02T14:26:30;15.13;;;4.15;;
44102;SDS011;29769;42.178;24.742;2022-11-02T14:29:34;12.30;;;3.50;;
44102;SDS011;29769;42.178;24.742;2022-11-02T14:35:32;14.50;;;4.05;;
44102;SDS011;29769;42.178;24.742;2022-11-02T14:41:56;24.25;;;4.32;;
44102;SDS011;29769;42.178;24.742;2022-11-02T14:47:43;29.25;;;3.75;;
44102;SDS011;29769;42.178;24.742;2022-11-02T14:50:28;26.40;;;3.88;;
44102;SDS011;29769;42.178;24.742;2022-11-02T14:53:24;27.60;;;4.88;;
44102;SDS011;29769;42.178;24.742;2022-11-02T14:56:12;16.10;;;3.00;;
44102;SDS011;29769;42.178;24.742;2022-11-02T14:58:57;14.82;;;4.38;;
44102;SDS011;29769;42.178;24.742;2022-11-02T15:02:02;15.38;;;3.72;;
44102;SDS011;29769;42.178;24.742;2022-11-02T15:04:55;16.60;;;4.20;;
44102;SDS011;29769;42.178;24.742;2022-11-02T15:07:47;19.50;;;4.07;;
44102;SDS011;29769;42.178;24.742;2022-11-02T15:10:39;13.95;;;3.42;;
44102;SDS011;29769;42.178;24.742;2022-11-02T15:13:33;18.00;;;4.15;;
44102;SDS011;29769;42.178;24.742;2022-11-02T15:16:20;19.27;;;3.90;;
44102;SDS011;29769;42.178;24.742;2022-11-02T15:28:20;18.13;;;5.40;;
44102;SDS011;29769;42.178;24.742;2022-11-02T15:31:12;19.77;;;5.47;;
44102;SDS011;29769;42.178;24.742;2022-11-02T15:34:08;27.98;;;5.68;;
44102;SDS011;29769;42.178;24.742;2022-11-02T15:37:00;53.13;;;7.22;;
44102;SDS011;29769;42.178;24.742;2022-11-02T15:39:47;47.88;;;7.28;;
44102;SDS011;29769;42.178;24.742;2022-11-02T15:42:44;51.10;;;6.68;;
44102;SDS011;29769;42.178;24.742;2022-11-02T15:58:08;25.98;;;4.47;;
44102;SDS011;29769;42.178;24.742;2022-11-02T16:01:26;30.80;;;5.25;;
44102;SDS011;29769;42.178;24.742;2022-11-02T16:04:17;40.58;;;6.53;;
44102;SDS011;29769;42.178;24.742;2022-11-02T16:07:04;31.33;;;6.15;;
44102;SDS011;29769;42.178;24.742;2022-11-02T16:09:50;33.22;;;6.90;;
44102;SDS011;29769;42.178;24.742;2022-11-02T16:12:36;24.33;;;5.90;;
44102;SDS011;29769;42.178;24.742;2022-11-02T16:15:20;38.30;;;5.97;;
44102;SDS011;29769;42.178;24.742;2022-11-02T16:18:05;24.80;;;5.30;;
44102;SDS011;29769;42.178;24.742;2022-11-02T16:21:05;26.30;;;6.03;;
44102;SDS011;29769;42.178;24.742;2022-11-02T16:23:53;34.20;;;6.03;;
44102;SDS011;29769;42.178;24.742;2022-11-02T16:26:40;25.88;;;5.70;;
44102;SDS011;29769;42.178;24.742;2022-11-02T16:29:30;29.30;;;5.57;;
44102;SDS011;29769;42.178;24.742;2022-11-02T16:32:16;45.05;;;6.35;;
44102;SDS011;29769;42.178;24.742;2022-11-02T16:35:01;43.47;;;7.93;;
44102;SDS011;29769;42.178;24.742;2022-11-02T16:37:47;32.22;;;7.10;;
44102;SDS011;29769;42.178;24.742;2022-11-02T16:40:33;36.92;;;7.10;;
44102;SDS011;29769;42.178;24.742;2022-11-02T16:43:20;24.23;;;6.60;;
44102;SDS011;29769;42.178;24.742;2022-11-02T16:46:06;22.42;;;5.82;;
44102;SDS011;29769;42.178;24.742;2022-11-02T16:52:05;17.23;;;6.10;;
44102;SDS011;29769;42.178;24.742;2022-11-02T16:55:02;58.30;;;7.93;;
44102;SDS011;29769;42.178;24.742;2022-11-02T16:58:21;20.88;;;4.85;;
44102;SDS011;29769;42.178;24.742;2022-11-02T17:01:10;26.67;;;6.25;;
44102;SDS011;29769;42.178;24.742;2022-11-02T17:04:17;21.92;;;6.45;;
44102;SDS011;29769;42.178;24.742;2022-11-02T17:10:01;18.00;;;4.80;;
44102;SDS011;29769;42.178;24.742;2022-11-02T17:12:48;21.45;;;6.53;;
44102;SDS011;29769;42.178;24.742;2022-11-02T17:15:34;20.08;;;5.30;;
44102;SDS011;29769;42.178;24.742;2022-11-02T17:23:56;35.33;;;6.30;;
44102;SDS011;29769;42.178;24.742;2022-11-02T17:26:41;27.05;;;5.75;;
44102;SDS011;29769;42.178;24.742;2022-11-02T17:29:27;31.98;;;6.60;;
44102;SDS011;29769;42.178;24.742;2022-11-02T17:32:15;25.27;;;6.38;;
44102;SDS011;29769;42.178;24.742;2022-11-02T17:35:01;32.72;;;6.10;;
44102;SDS011;29769;42.178;24.742;2022-11-02T17:37:48;21.67;;;6.90;;
44102;SDS011;29769;42.178;24.742;2022-11-02T17:40:33;16.88;;;6.47;;
44102;SDS011;29769;42.178;24.742;2022-11-02T17:43:18;21.52;;;6.32;;
44102;SDS011;29769;42.178;24.742;2022-11-02T17:46:04;21.63;;;6.00;;
44102;SDS011;29769;42.178;24.742;2022-11-02T17:48:52;18.92;;;6.22;;
44102;SDS011;29769;42.178;24.742;2022-11-02T17:51:37;26.55;;;6.60;;
44102;SDS011;29769;42.178;24.742;2022-11-02T17:54:22;27.20;;;6.97;;
44102;SDS011;29769;42.178;24.742;2022-11-02T17:59:55;28.05;;;7.65;;
44102;SDS011;29769;42.178;24.742;2022-11-02T18:02:39;27.08;;;6.05;;
44102;SDS011;29769;42.178;24.742;2022-11-02T18:08:13;28.20;;;7.40;;
44102;SDS011;29769;42.178;24.742;2022-11-02T18:10:58;32.03;;;8.35;;
44102;SDS011;29769;42.178;24.742;2022-11-02T18:16:28;27.63;;;7.20;;
44102;SDS011;29769;42.178;24.742;2022-11-02T18:19:12;28.67;;;6.85;;
44102;SDS011;29769;42.178;24.742;2022-11-02T18:21:58;29.27;;;7.05;;
44102;SDS011;29769;42.178;24.742;2022-11-02T18:24:44;21.17;;;6.70;;
44102;SDS011;29769;42.178;24.742;2022-11-02T18:27:29;25.65;;;6.78;;
44102;SDS011;29769;42.178;24.742;2022-11-02T18:30:15;28.92;;;7.07;;
44102;SDS011;29769;42.178;24.742;2022-11-02T18:33:01;32.67;;;6.85;;
44102;SDS011;29769;42.178;24.742;2022-11-02T18:35:46;24.20;;;6.93;;
44102;SDS011;29769;42.178;24.742;2022-11-02T18:41:15;42.70;;;7.57;;
44102;SDS011;29769;42.178;24.742;2022-11-02T18:44:17;32.78;;;7.38;;
44102;SDS011;29769;42.178;24.742;2022-11-02T18:47:02;29.33;;;6.32;;
44102;SDS011;29769;42.178;24.742;2022-11-02T18:49:48;31.75;;;7.30;;
44102;SDS011;29769;42.178;24.742;2022-11-02T18:55:17;23.17;;;6.68;;
44102;SDS011;29769;42.178;24.742;2022-11-02T18:58:02;29.08;;;7.28;;
44102;SDS011;29769;42.178;24.742;2022-11-02T19:00:47;20.88;;;7.07;;
44102;SDS011;29769;42.178;24.742;2022-11-02T19:03:32;28.73;;;7.05;;
44102;SDS011;29769;42.178;24.742;2022-11-02T19:06:17;28.73;;;6.75;;
44102;SDS011;29769;42.178;24.742;2022-11-02T19:09:21;24.85;;;6.80;;
44102;SDS011;29769;42.178;24.742;2022-11-02T19:12:12;24.90;;;6.53;;
44102;SDS011;29769;42.178;24.742;2022-11-02T19:15:00;17.33;;;6.10;;
44102;SDS011;29769;42.178;24.742;2022-11-02T19:17:45;24.15;;;6.35;;
44102;SDS011;29769;42.178;24.742;2022-11-02T19:23:15;20.33;;;5.63;;
44102;SDS011;29769;42.178;24.742;2022-11-02T19:28:45;25.33;;;6.17;;
44102;SDS011;29769;42.178;24.742;2022-11-02T19:31:30;24.05;;;6.70;;
44102;SDS011;29769;42.178;24.742;2022-11-02T19:34:15;22.05;;;6.07;;